createdAt,value
2023-01-02T00:00:32.222Z,8.31
2023-01-02T00:01:32.190Z,8.24
2023-01-02T00:02:32.254Z,8.27
2023-01-02T00:03:32.361Z,8.37
2023-01-02T00:04:32.173Z,8.37
2023-01-02T00:05:32.162Z,8.49
2023-01-02T00:06:32.217Z,8.45
2023-01-02T00:07:32.132Z,8.42
2023-01-02T00:08:32.087Z,8.42
2023-01-02T00:09:32.129Z,8.39
2023-01-02T00:10:32.110Z,8.32
2023-01-02T00:11:32.232Z,8.32
2023-01-02T00:12:32.076Z,8.28
2023-01-02T00:13:32.048Z,8.09
2023-01-02T00:14:32.076Z,8.18
2023-01-02T00:15:32.044Z,8.13
2023-01-02T00:16:32.444Z,7.94
2023-01-02T00:17:32.158Z,7.99
2023-01-02T00:18:32.064Z,8.03
2023-01-02T00:19:32.035Z,7.89
2023-01-02T00:20:31.985Z,7.74
2023-01-02T00:21:32.140Z,7.73
2023-01-02T00:22:31.988Z,7.70
2023-01-02T00:23:31.963Z,7.57
2023-01-02T00:24:31.946Z,7.47
2023-01-02T00:25:31.930Z,7.55
2023-01-02T00:26:31.920Z,7.50
2023-01-02T00:27:31.946Z,7.36
2023-01-02T00:28:31.957Z,7.48
2023-01-02T00:29:31.917Z,7.69
2023-01-02T00:30:37.937Z,7.62
2023-01-02T00:31:33.030Z,7.42
2023-01-02T00:32:31.896Z,7.48
2023-01-02T00:33:31.842Z,7.45
2023-01-02T00:34:31.864Z,7.73
2023-01-02T00:35:31.815Z,7.81
2023-01-02T00:36:31.832Z,7.95
2023-01-02T00:37:31.781Z,7.99
2023-01-02T00:38:31.781Z,8.04
2023-01-02T00:39:31.844Z,8.21
2023-01-02T00:40:31.767Z,8.34
2023-01-02T00:41:31.821Z,8.27
2023-01-02T00:42:31.754Z,8.32
2023-01-02T00:43:31.755Z,8.24
2023-01-02T00:44:31.725Z,8.29
2023-01-02T00:45:31.714Z,8.32
2023-01-02T00:46:31.768Z,8.31
2023-01-02T00:47:31.795Z,8.27
2023-01-02T00:48:31.733Z,8.37
2023-01-02T00:49:31.736Z,8.24
2023-01-02T00:50:31.643Z,8.22
2023-01-02T00:51:31.707Z,8.22
2023-01-02T00:52:31.679Z,8.10
2023-01-02T00:53:31.640Z,7.99
2023-01-02T00:54:31.629Z,8.00
2023-01-02T00:55:31.616Z,7.89
2023-01-02T00:56:31.614Z,7.85
2023-01-02T00:57:31.586Z,7.71
2023-01-02T00:58:31.556Z,7.85
2023-01-02T00:59:31.570Z,8.10
2023-01-02T01:00:31.540Z,8.18
2023-01-02T01:01:31.661Z,8.25
2023-01-02T01:02:31.671Z,8.21
2023-01-02T01:03:31.547Z,8.13
2023-01-02T01:04:31.497Z,8.17
2023-01-02T01:05:31.518Z,8.18
2023-01-02T01:06:31.525Z,8.12
2023-01-02T01:07:31.493Z,8.12
2023-01-02T01:08:31.549Z,8.13
2023-01-02T01:09:31.448Z,8.13
2023-01-02T01:10:31.466Z,8.10
2023-01-02T01:11:31.503Z,8.12
2023-01-02T01:12:31.434Z,7.95
2023-01-02T01:13:31.420Z,7.74
2023-01-02T01:14:31.438Z,7.62
2023-01-02T01:15:31.385Z,7.62
2023-01-02T01:16:31.558Z,7.60
2023-01-02T01:17:31.374Z,7.51
2023-01-02T01:18:31.342Z,7.50
2023-01-02T01:19:31.365Z,7.47
2023-01-02T01:20:31.346Z,7.33
2023-01-02T01:21:31.372Z,7.26
2023-01-02T01:22:31.341Z,7.24
2023-01-02T01:23:31.363Z,7.24
2023-01-02T01:24:31.308Z,7.16
2023-01-02T01:25:31.290Z,7.16
2023-01-02T01:26:31.330Z,7.29
2023-01-02T01:27:31.255Z,7.15
2023-01-02T01:28:31.280Z,6.93
2023-01-02T01:29:31.230Z,6.96
2023-01-02T01:30:31.336Z,6.76
2023-01-02T01:31:31.301Z,6.69
2023-01-02T01:32:31.203Z,6.65
2023-01-02T01:33:31.323Z,6.71
2023-01-02T01:34:31.223Z,6.65
2023-01-02T01:35:31.194Z,6.75
2023-01-02T01:36:31.205Z,6.82
2023-01-02T01:37:31.219Z,6.91
2023-01-02T01:38:31.163Z,6.81
2023-01-02T01:39:31.190Z,6.93
2023-01-02T01:40:31.108Z,6.90
2023-01-02T01:41:31.419Z,6.86
2023-01-02T01:42:31.142Z,6.83
2023-01-02T01:43:31.077Z,6.91
2023-01-02T01:44:31.068Z,6.78
2023-01-02T01:45:31.171Z,6.64
2023-01-02T01:46:31.250Z,6.61
2023-01-02T01:47:31.065Z,6.63
2023-01-02T01:48:31.077Z,6.64
2023-01-02T01:49:31.045Z,6.53
2023-01-02T01:50:31.107Z,6.42
2023-01-02T01:51:31.070Z,6.55
2023-01-02T01:52:31.011Z,6.50
2023-01-02T01:53:31.008Z,6.51
2023-01-02T01:54:30.980Z,6.63
2023-01-02T01:55:30.987Z,6.60
2023-01-02T01:56:30.987Z,6.81
2023-01-02T01:57:30.973Z,6.86
2023-01-02T01:58:30.934Z,6.83
2023-01-02T01:59:30.979Z,6.87
2023-01-02T02:00:30.921Z,6.79
2023-01-02T02:01:30.942Z,6.60
2023-01-02T02:02:30.957Z,6.65
2023-01-02T02:03:30.887Z,6.55
2023-01-02T02:04:30.893Z,6.63
2023-01-02T02:05:30.841Z,6.61
2023-01-02T02:06:30.877Z,6.53
2023-01-02T02:07:30.846Z,6.55
2023-01-02T02:08:30.846Z,6.60
2023-01-02T02:09:30.800Z,6.65
2023-01-02T02:10:30.879Z,6.93
2023-01-02T02:11:30.979Z,6.94
2023-01-02T02:12:30.790Z,7.00
2023-01-02T02:13:30.805Z,6.94
2023-01-02T02:14:30.786Z,6.97
2023-01-02T02:15:30.802Z,6.86
2023-01-02T02:16:30.799Z,6.82
2023-01-02T02:17:30.737Z,6.69
2023-01-02T02:18:30.737Z,6.87
2023-01-02T02:19:30.689Z,6.83
2023-01-02T02:20:30.748Z,6.79
2023-01-02T02:21:30.702Z,6.68
2023-01-02T02:22:30.666Z,6.65
2023-01-02T02:23:30.691Z,6.69
2023-01-02T02:24:30.679Z,6.64
2023-01-02T02:25:30.636Z,6.58
2023-01-02T02:26:30.667Z,6.53
2023-01-02T02:27:30.640Z,6.57
2023-01-02T02:28:30.684Z,6.54
2023-01-02T02:29:30.636Z,6.53
2023-01-02T02:30:30.605Z,6.39
2023-01-02T02:31:30.652Z,6.35
2023-01-02T02:32:30.607Z,6.43
2023-01-02T02:33:30.563Z,6.48
2023-01-02T02:34:30.543Z,6.54
2023-01-02T02:35:30.526Z,6.50
2023-01-02T02:36:30.609Z,6.48
2023-01-02T02:37:30.529Z,6.40
2023-01-02T02:38:30.545Z,6.40
2023-01-02T02:39:30.510Z,6.54
2023-01-02T02:40:30.472Z,6.64
2023-01-02T02:41:30.541Z,6.61
2023-01-02T02:42:30.476Z,6.60
2023-01-02T02:43:30.460Z,6.68
2023-01-02T02:44:30.483Z,6.65
2023-01-02T02:45:30.465Z,6.64
2023-01-02T02:46:30.461Z,6.60
2023-01-02T02:47:30.407Z,6.65
2023-01-02T02:48:30.417Z,6.75
2023-01-02T02:49:30.402Z,6.81
2023-01-02T02:50:30.534Z,6.81
2023-01-02T02:51:30.384Z,6.64
2023-01-02T02:52:30.373Z,6.82
2023-01-02T02:53:30.441Z,7.16
2023-01-02T02:54:30.351Z,7.30
2023-01-02T02:55:30.341Z,7.57
2023-01-02T02:56:30.383Z,7.99
2023-01-02T02:57:30.376Z,8.29
2023-01-02T02:58:30.305Z,8.49
2023-01-02T02:59:30.323Z,8.50
2023-01-02T03:00:30.337Z,8.46
2023-01-02T03:01:31.197Z,8.63
2023-01-02T03:02:30.419Z,8.61
2023-01-02T03:03:30.307Z,8.68
2023-01-02T03:04:30.261Z,8.71
2023-01-02T03:05:30.250Z,8.79
2023-01-02T03:06:30.244Z,8.88
2023-01-02T03:07:30.305Z,8.79
2023-01-02T03:08:33.238Z,8.85
2023-01-02T03:09:30.171Z,8.93
2023-01-02T03:10:30.337Z,8.82
2023-01-02T03:11:30.273Z,8.91
2023-01-02T03:12:30.135Z,8.96
2023-01-02T03:13:40.559Z,9.13
2023-01-02T03:14:31.157Z,9.10
2023-01-02T03:15:30.146Z,9.06
2023-01-02T03:16:30.217Z,9.15
2023-01-02T03:17:30.109Z,9.00
2023-01-02T03:18:30.073Z,8.96
2023-01-02T03:19:30.076Z,8.89
2023-01-02T03:20:30.083Z,8.91
2023-01-02T03:21:31.528Z,8.94
2023-01-02T03:22:30.037Z,8.86
2023-01-02T03:23:30.056Z,8.78
2023-01-02T03:24:30.033Z,8.83
2023-01-02T03:25:30.221Z,9.06
2023-01-02T03:26:30.008Z,9.03
2023-01-02T03:27:30.002Z,9.03
2023-01-02T03:28:29.960Z,8.98
2023-01-02T03:29:29.969Z,8.97
2023-01-02T03:30:30.056Z,8.96
2023-01-02T03:31:29.986Z,9.10
2023-01-02T03:32:29.926Z,9.06
2023-01-02T03:33:29.934Z,9.22
2023-01-02T03:34:29.935Z,9.27
2023-01-02T03:35:29.977Z,9.52
2023-01-02T03:36:29.938Z,9.58
2023-01-02T03:37:29.867Z,9.59
2023-01-02T03:38:29.958Z,9.62
2023-01-02T03:39:29.907Z,9.71
2023-01-02T03:40:29.916Z,9.78
2023-01-02T03:41:29.891Z,9.85
2023-01-02T03:42:29.841Z,9.88
2023-01-02T03:43:29.908Z,9.91
2023-01-02T03:44:29.799Z,9.77
2023-01-02T03:45:29.796Z,9.70
2023-01-02T03:46:29.831Z,9.77
2023-01-02T03:47:29.812Z,9.78
2023-01-02T03:48:29.795Z,9.78
2023-01-02T03:49:29.785Z,9.85
2023-01-02T03:50:29.861Z,9.73
2023-01-02T03:51:29.720Z,9.74
2023-01-02T03:52:29.798Z,9.65
2023-01-02T03:53:29.720Z,9.70
2023-01-02T03:54:29.698Z,9.56
2023-01-02T03:55:29.787Z,9.53
2023-01-02T03:56:29.670Z,9.44
2023-01-02T03:57:29.685Z,9.24
2023-01-02T03:58:29.687Z,9.15
2023-01-02T03:59:29.696Z,9.06
2023-01-02T04:00:29.674Z,9.01
2023-01-02T04:01:29.694Z,8.79
2023-01-02T04:02:29.768Z,8.64
2023-01-02T04:03:29.596Z,8.71
2023-01-02T04:04:29.640Z,8.61
2023-01-02T04:05:29.577Z,8.60
2023-01-02T04:06:29.585Z,8.61
2023-01-02T04:07:29.579Z,8.52
2023-01-02T04:08:29.620Z,8.43
2023-01-02T04:09:29.531Z,8.49
2023-01-02T04:10:29.521Z,8.55
2023-01-02T04:11:29.509Z,8.68
2023-01-02T04:12:29.511Z,8.82
2023-01-02T04:13:29.530Z,8.78
2023-01-02T04:14:29.485Z,8.73
2023-01-02T04:15:29.507Z,8.67
2023-01-02T04:16:29.487Z,8.61
2023-01-02T04:17:29.516Z,8.39
2023-01-02T04:18:29.456Z,8.29
2023-01-02T04:19:29.448Z,8.29
2023-01-02T04:20:29.424Z,8.49
2023-01-02T04:21:29.426Z,8.49
2023-01-02T04:22:29.449Z,8.49
2023-01-02T04:23:29.432Z,8.55
2023-01-02T04:24:29.435Z,8.52
2023-01-02T04:25:29.378Z,8.76
2023-01-02T04:26:29.367Z,8.91
2023-01-02T04:27:29.360Z,9.16
2023-01-02T04:28:29.324Z,9.44
2023-01-02T04:29:29.723Z,9.71
2023-01-02T04:30:29.315Z,9.93
2023-01-02T04:31:29.346Z,10.01
2023-01-02T04:32:29.297Z,10.20
2023-01-02T04:33:29.268Z,10.43
2023-01-02T04:34:29.264Z,10.42
2023-01-02T04:35:29.385Z,10.55
2023-01-02T04:36:29.253Z,10.52
2023-01-02T04:37:29.248Z,10.66
2023-01-02T04:38:29.219Z,10.62
2023-01-02T04:39:29.259Z,10.65
2023-01-02T04:40:29.193Z,10.62
2023-01-02T04:41:29.238Z,10.54
2023-01-02T04:42:29.180Z,10.62
2023-01-02T04:43:29.156Z,10.63
2023-01-02T04:44:29.188Z,10.46
2023-01-02T04:45:29.123Z,10.46
2023-01-02T04:46:29.256Z,10.49
2023-01-02T04:47:29.190Z,10.49
2023-01-02T04:48:29.114Z,10.52
2023-01-02T04:49:29.093Z,10.43
2023-01-02T04:50:29.127Z,10.52
2023-01-02T04:51:29.155Z,10.65
2023-01-02T04:52:35.046Z,10.66
2023-01-02T04:53:30.061Z,10.84
2023-01-02T04:54:29.055Z,10.84
2023-01-02T04:55:29.073Z,10.99
2023-01-02T04:56:29.134Z,10.94
2023-01-02T04:57:29.104Z,10.98
2023-01-02T04:58:29.052Z,11.08
2023-01-02T04:59:28.973Z,11.12
2023-01-02T05:00:28.987Z,11.09
2023-01-02T05:01:29.149Z,11.12
2023-01-02T05:02:29.073Z,11.19
2023-01-02T05:03:29.013Z,11.24
2023-01-02T05:04:29.022Z,11.20
2023-01-02T05:05:28.934Z,11.13
2023-01-02T05:06:28.915Z,11.12
2023-01-02T05:07:28.930Z,11.06
2023-01-02T05:08:28.946Z,11.06
2023-01-02T05:09:28.894Z,11.09
2023-01-02T05:10:28.887Z,10.95
2023-01-02T05:11:28.860Z,10.88
2023-01-02T05:12:28.892Z,10.87
2023-01-02T05:13:28.947Z,10.80
2023-01-02T05:14:28.891Z,10.73
2023-01-02T05:15:28.807Z,10.66
2023-01-02T05:16:28.893Z,10.62
2023-01-02T05:17:28.823Z,10.58
2023-01-02T05:18:29.053Z,10.63
2023-01-02T05:19:28.796Z,10.57
2023-01-02T05:20:28.833Z,10.75
2023-01-02T05:21:28.773Z,10.63
2023-01-02T05:22:28.760Z,10.46
2023-01-02T05:23:28.727Z,10.58
2023-01-02T05:24:28.742Z,10.52
2023-01-02T05:25:28.891Z,10.54
2023-01-02T05:26:28.751Z,10.63
2023-01-02T05:27:28.780Z,10.60
2023-01-02T05:28:31.245Z,10.84
2023-01-02T05:29:29.715Z,10.87
2023-01-02T05:30:28.706Z,10.94
2023-01-02T05:31:28.910Z,11.09
2023-01-02T05:32:28.737Z,11.06
2023-01-02T05:33:28.658Z,11.08
2023-01-02T05:34:28.620Z,11.13
2023-01-02T05:35:32.569Z,11.09
2023-01-02T05:36:28.692Z,11.01
2023-01-02T05:37:28.615Z,10.94
2023-01-02T05:38:28.586Z,10.94
2023-01-02T05:39:28.564Z,10.90
2023-01-02T05:40:28.620Z,10.78
2023-01-02T05:41:28.564Z,10.65
2023-01-02T05:42:28.545Z,10.65
2023-01-02T05:43:28.517Z,10.66
2023-01-02T05:44:28.840Z,10.62
2023-01-02T05:45:28.520Z,10.39
2023-01-02T05:46:28.572Z,10.06
2023-01-02T05:47:28.535Z,9.98
2023-01-02T05:48:28.469Z,9.95
2023-01-02T05:49:28.460Z,10.02
2023-01-02T05:50:28.468Z,10.09
2023-01-02T05:51:28.455Z,10.07
2023-01-02T05:52:28.435Z,10.01
2023-01-02T05:53:28.444Z,9.98
2023-01-02T05:54:28.424Z,9.92
2023-01-02T05:55:28.418Z,9.86
2023-01-02T05:56:28.419Z,9.91
2023-01-02T05:57:28.364Z,9.95
2023-01-02T05:58:28.360Z,10.02
2023-01-02T05:59:28.371Z,10.14
2023-01-02T06:00:28.368Z,10.28
2023-01-02T06:01:28.391Z,10.38
2023-01-02T06:02:28.411Z,10.43
2023-01-02T06:03:28.423Z,10.58
2023-01-02T06:04:28.294Z,10.63
2023-01-02T06:05:28.313Z,10.63
2023-01-02T06:06:28.278Z,10.63
2023-01-02T06:07:28.298Z,10.65
2023-01-02T06:08:28.350Z,10.49
2023-01-02T06:09:28.275Z,10.36
2023-01-02T06:10:28.212Z,10.31
2023-01-02T06:11:28.245Z,10.18
2023-01-02T06:12:28.224Z,10.34
2023-01-02T06:13:28.358Z,10.42
2023-01-02T06:14:28.237Z,10.39
2023-01-02T06:15:28.215Z,10.46
2023-01-02T06:16:28.213Z,10.62
2023-01-02T06:17:28.199Z,10.62
2023-01-02T06:18:28.155Z,10.57
2023-01-02T06:19:28.151Z,10.62
2023-01-02T06:20:28.140Z,10.62
2023-01-02T06:21:28.141Z,10.54
2023-01-02T06:22:28.205Z,10.60
2023-01-02T06:23:28.100Z,10.68
2023-01-02T06:24:28.080Z,10.69
2023-01-02T06:25:28.133Z,10.76
2023-01-02T06:26:34.247Z,10.87
2023-01-02T06:27:29.098Z,10.91
2023-01-02T06:28:28.092Z,10.94
2023-01-02T06:29:28.025Z,10.99
2023-01-02T06:30:28.032Z,10.93
2023-01-02T06:31:28.098Z,10.94
2023-01-02T06:32:28.065Z,11.12
2023-01-02T06:33:27.981Z,11.12
2023-01-02T06:34:27.972Z,11.12
2023-01-02T06:35:27.954Z,11.12
2023-01-02T06:36:27.947Z,11.19
2023-01-02T06:37:27.954Z,11.13
2023-01-02T06:38:28.072Z,11.17
2023-01-02T06:39:28.055Z,11.12
2023-01-02T06:40:27.941Z,11.13
2023-01-02T06:41:27.928Z,11.20
2023-01-02T06:42:27.955Z,11.24
2023-01-02T06:43:27.923Z,11.31
2023-01-02T06:44:27.862Z,11.31
2023-01-02T06:45:27.915Z,11.27
2023-01-02T06:46:27.870Z,11.36
2023-01-02T06:47:27.889Z,11.36
2023-01-02T06:48:27.842Z,11.27
2023-01-02T06:49:27.911Z,11.11
2023-01-02T06:50:34.648Z,11.19
2023-01-02T06:51:28.786Z,11.26
2023-01-02T06:52:27.775Z,11.38
2023-01-02T06:53:27.844Z,11.30
2023-01-02T06:54:27.783Z,11.33
2023-01-02T06:55:27.863Z,11.26
2023-01-02T06:56:27.821Z,11.41
2023-01-02T06:57:27.752Z,11.36
2023-01-02T06:58:27.727Z,11.35
2023-01-02T06:59:28.023Z,11.51
2023-01-02T07:00:27.701Z,11.51
2023-01-02T07:01:27.799Z,11.51
2023-01-02T07:02:27.889Z,11.54
2023-01-02T07:03:27.655Z,11.54
2023-01-02T07:04:27.659Z,11.57
2023-01-02T07:05:27.681Z,11.54
2023-01-02T07:06:27.838Z,11.49
2023-01-02T07:07:27.670Z,11.59
2023-01-02T07:08:27.608Z,11.66
2023-01-02T07:09:27.656Z,11.59
2023-01-02T07:10:27.624Z,11.66
2023-01-02T07:11:27.678Z,11.51
2023-01-02T07:12:27.564Z,11.51
2023-01-02T07:13:27.544Z,11.53
2023-01-02T07:14:27.566Z,11.56
2023-01-02T07:15:27.529Z,11.53
2023-01-02T07:16:27.548Z,11.70
2023-01-02T07:17:28.038Z,11.57
2023-01-02T07:18:27.517Z,11.72
2023-01-02T07:19:27.489Z,11.63
2023-01-02T07:20:27.484Z,11.54
2023-01-02T07:21:27.452Z,11.64
2023-01-02T07:22:27.552Z,11.64
2023-01-02T07:23:27.533Z,11.88
2023-01-02T07:24:27.455Z,11.87
2023-01-02T07:25:27.472Z,11.94
2023-01-02T07:26:27.408Z,11.96
2023-01-02T07:27:27.732Z,11.88
2023-01-02T07:28:27.484Z,11.78
2023-01-02T07:29:27.386Z,11.78
2023-01-02T07:30:27.928Z,11.77
2023-01-02T07:31:27.434Z,11.59
2023-01-02T07:32:27.936Z,11.66
2023-01-02T07:33:27.365Z,11.51
2023-01-02T07:34:27.329Z,11.56
2023-01-02T07:35:27.328Z,11.54
2023-01-02T07:36:27.530Z,11.64
2023-01-02T07:37:27.359Z,11.57
2023-01-02T07:38:27.330Z,11.56
2023-01-02T07:39:27.294Z,11.53
2023-01-02T07:40:31.936Z,11.56
2023-01-02T07:41:28.361Z,11.57
2023-01-02T07:42:27.302Z,11.59
2023-01-02T07:43:27.239Z,11.53
2023-01-02T07:44:27.244Z,11.59
2023-01-02T07:45:27.202Z,11.57
2023-01-02T07:46:27.278Z,11.63
2023-01-02T07:47:27.204Z,11.63
2023-01-02T07:48:27.201Z,11.62
2023-01-02T07:49:27.203Z,11.64
2023-01-02T07:50:27.166Z,11.59
2023-01-02T07:51:27.859Z,11.48
2023-01-02T07:52:27.349Z,11.49
2023-01-02T07:53:27.117Z,11.49
2023-01-02T07:54:27.116Z,11.66
2023-01-02T07:55:27.151Z,11.70
2023-01-02T07:56:27.089Z,11.64
2023-01-02T07:57:27.121Z,11.62
2023-01-02T07:58:27.125Z,11.69
2023-01-02T07:59:27.071Z,11.69
2023-01-02T08:00:27.028Z,11.69
2023-01-02T08:01:27.221Z,11.82
2023-01-02T08:02:27.124Z,11.87
2023-01-02T08:03:27.002Z,11.88
2023-01-02T08:04:27.155Z,12.01
2023-01-02T08:05:26.992Z,11.97
2023-01-02T08:06:26.988Z,12.03
2023-01-02T08:07:26.993Z,12.03
2023-01-02T08:08:26.964Z,12.05
2023-01-02T08:09:26.955Z,12.18
2023-01-02T08:10:27.029Z,12.18
2023-01-02T08:11:26.991Z,12.18
2023-01-02T08:12:26.963Z,12.16
2023-01-02T08:13:26.938Z,12.13
2023-01-02T08:14:27.856Z,12.15
2023-01-02T08:15:26.980Z,12.18
2023-01-02T08:16:26.964Z,12.36
2023-01-02T08:17:26.951Z,12.37
2023-01-02T08:18:26.847Z,12.49
2023-01-02T08:19:26.861Z,12.54
2023-01-02T08:20:27.076Z,12.52
2023-01-02T08:21:26.946Z,12.40
2023-01-02T08:22:26.882Z,12.40
2023-01-02T08:23:26.848Z,12.36
2023-01-02T08:24:26.822Z,12.44
2023-01-02T08:25:26.958Z,12.37
2023-01-02T08:26:26.767Z,12.49
2023-01-02T08:27:28.643Z,12.56
2023-01-02T08:28:38.704Z,12.54
2023-01-02T08:29:27.648Z,12.55
2023-01-02T08:30:26.907Z,12.52
2023-01-02T08:31:26.867Z,12.46
2023-01-02T08:32:26.773Z,12.52
2023-01-02T08:33:26.845Z,12.41
2023-01-02T08:34:28.346Z,12.38
2023-01-02T08:35:38.280Z,12.41
2023-01-02T08:36:29.326Z,12.38
2023-01-02T08:37:27.001Z,12.41
2023-01-02T08:38:28.846Z,12.38
2023-01-02T08:39:29.149Z,12.37
2023-01-02T08:40:28.065Z,12.38
2023-01-02T08:41:29.299Z,12.33
2023-01-02T08:42:27.314Z,12.25
2023-01-02T08:43:32.307Z,12.33
2023-01-02T08:44:32.120Z,12.30
2023-01-02T08:45:28.814Z,12.30
2023-01-02T08:46:32.422Z,12.34
2023-01-02T08:47:35.162Z,12.38
2023-01-02T08:48:30.080Z,12.43
2023-01-02T08:49:34.215Z,12.41
2023-01-02T08:50:35.676Z,12.49
2023-01-02T08:51:30.261Z,12.52
2023-01-02T08:52:33.771Z,12.54
2023-01-02T08:53:32.663Z,12.59
2023-01-02T08:54:28.464Z,12.59
2023-01-02T08:55:36.773Z,12.81
2023-01-02T08:56:32.142Z,12.98
2023-01-02T08:57:39.291Z,13.04
2023-01-02T08:58:34.376Z,13.14
2023-01-02T08:59:43.288Z,13.25
2023-01-02T09:00:32.398Z,13.54
2023-01-02T09:01:39.855Z,13.55
2023-01-02T09:02:35.044Z,13.79
2023-01-02T09:03:32.217Z,13.96
2023-01-02T09:04:30.078Z,14.08
2023-01-02T09:05:36.498Z,14.17
2023-01-02T09:06:34.745Z,14.38
2023-01-02T09:07:43.114Z,14.36
2023-01-02T09:09:36.683Z,14.74
2023-01-02T09:10:36.746Z,14.94
2023-01-02T09:11:36.843Z,15.00
2023-01-02T09:12:36.678Z,15.11
2023-01-02T09:13:36.628Z,15.20
2023-01-02T09:14:36.622Z,15.31
2023-01-02T09:15:36.675Z,15.34
2023-01-02T09:16:36.624Z,15.34
2023-01-02T09:17:36.671Z,15.44
2023-01-02T09:18:36.575Z,15.51
2023-01-02T09:19:36.566Z,15.59
2023-01-02T09:20:36.579Z,15.51
2023-01-02T09:21:36.552Z,15.60
2023-01-02T09:22:37.468Z,15.59
2023-01-02T09:23:36.528Z,15.67
2023-01-02T09:24:36.520Z,15.81
2023-01-02T09:25:36.529Z,15.89
2023-01-02T09:26:36.536Z,15.93
2023-01-02T09:27:37.608Z,16.04
2023-01-02T09:28:36.604Z,16.04
2023-01-02T09:29:36.832Z,16.04
2023-01-02T09:30:36.696Z,16.06
2023-01-02T09:31:36.443Z,16.03
2023-01-02T09:32:36.456Z,16.06
2023-01-02T09:33:36.675Z,16.11
2023-01-02T09:34:36.463Z,16.26
2023-01-02T09:35:37.854Z,16.33
2023-01-02T09:36:36.384Z,16.47
2023-01-02T09:37:36.441Z,16.62
2023-01-02T09:38:36.387Z,16.63
2023-01-02T09:39:36.358Z,16.50
2023-01-02T09:40:36.379Z,16.48
2023-01-02T09:41:36.386Z,16.55
2023-01-02T09:42:36.350Z,16.65
2023-01-02T09:43:36.316Z,16.63
2023-01-02T09:44:36.358Z,16.60
2023-01-02T09:45:36.432Z,16.78
2023-01-02T09:46:36.330Z,16.67
2023-01-02T09:47:36.283Z,16.85
2023-01-02T09:48:36.264Z,17.17
2023-01-02T09:49:36.301Z,17.28
2023-01-02T09:50:36.242Z,17.30
2023-01-02T09:51:36.275Z,17.57
2023-01-02T09:52:36.284Z,17.65
2023-01-02T09:53:36.215Z,17.76
2023-01-02T09:54:36.204Z,17.63
2023-01-02T09:55:36.231Z,17.62
2023-01-02T09:56:36.167Z,17.58
2023-01-02T09:57:36.175Z,17.63
2023-01-02T09:58:38.954Z,17.54
2023-01-02T09:59:36.161Z,17.54
2023-01-02T10:00:36.164Z,17.49
2023-01-02T10:01:36.202Z,17.76
2023-01-02T10:02:36.401Z,18.01
2023-01-02T10:03:36.513Z,18.11
2023-01-02T10:04:36.194Z,18.41
2023-01-02T10:05:36.227Z,18.54
2023-01-02T10:06:36.143Z,18.56
2023-01-02T10:07:36.302Z,18.64
2023-01-02T10:08:36.207Z,18.74
2023-01-02T10:09:36.116Z,18.62
2023-01-02T10:10:36.263Z,18.68
2023-01-02T10:11:36.158Z,18.50
2023-01-02T10:12:36.259Z,18.42
2023-01-02T10:14:18.067Z,18.34
2023-01-02T10:14:43.907Z,18.04
2023-01-02T10:15:37.039Z,17.84
2023-01-02T10:16:36.158Z,17.84
2023-01-02T10:17:36.149Z,17.71
2023-01-02T10:18:36.129Z,17.63
2023-01-02T10:19:35.957Z,17.54
2023-01-02T10:20:36.282Z,17.27
2023-01-02T10:21:36.232Z,17.10
2023-01-02T10:22:36.816Z,17.00
2023-01-02T10:23:35.906Z,16.92
2023-01-02T10:24:35.869Z,16.98
2023-01-02T10:25:35.934Z,16.92
2023-01-02T10:26:35.847Z,16.95
2023-01-02T10:27:35.835Z,16.87
2023-01-02T10:28:35.936Z,16.77
2023-01-02T10:29:35.817Z,16.80
2023-01-02T10:30:35.960Z,16.70
2023-01-02T10:31:35.894Z,16.62
2023-01-02T10:32:35.766Z,16.65
2023-01-02T10:33:35.800Z,16.59
2023-01-02T10:34:35.766Z,16.50
2023-01-02T10:35:35.765Z,16.47
2023-01-02T10:36:35.917Z,16.51
2023-01-02T10:37:35.778Z,16.73
2023-01-02T10:38:35.764Z,16.87
2023-01-02T10:39:35.720Z,16.82
2023-01-02T10:40:35.699Z,16.91
2023-01-02T10:41:35.706Z,16.80
2023-01-02T10:42:35.676Z,16.72
2023-01-02T10:43:35.935Z,16.77
2023-01-02T10:44:35.664Z,16.67
2023-01-02T10:45:35.700Z,16.65
2023-01-02T10:46:35.690Z,16.62
2023-01-02T10:47:35.637Z,16.62
2023-01-02T10:48:36.074Z,16.55
2023-01-02T10:49:35.648Z,16.60
2023-01-02T10:50:35.585Z,16.63
2023-01-02T10:51:35.586Z,16.69
2023-01-02T10:52:35.696Z,16.77
2023-01-02T10:53:35.638Z,16.72
2023-01-02T10:54:35.558Z,16.81
2023-01-02T10:55:35.601Z,16.82
2023-01-02T10:56:35.556Z,16.88
2023-01-02T10:57:35.659Z,17.03
2023-01-02T10:58:35.584Z,17.14
2023-01-02T10:59:35.555Z,17.12
2023-01-02T11:00:35.600Z,17.15
2023-01-02T11:01:35.724Z,17.10
2023-01-02T11:02:35.706Z,17.24
2023-01-02T11:03:35.614Z,17.30
2023-01-02T11:04:35.610Z,17.30
2023-01-02T11:05:35.428Z,17.28
2023-01-02T11:06:39.837Z,17.49
2023-01-02T11:07:35.550Z,17.49
2023-01-02T11:08:35.407Z,17.54
2023-01-02T11:09:35.429Z,17.58
2023-01-02T11:10:35.928Z,17.68
2023-01-02T11:11:36.447Z,17.77
2023-01-02T11:12:38.171Z,17.80
2023-01-02T11:13:35.381Z,17.91
2023-01-02T11:14:35.393Z,18.01
2023-01-02T11:15:35.387Z,18.05
2023-01-02T11:16:35.327Z,17.99
2023-01-02T11:17:35.291Z,18.39
2023-01-02T11:18:35.303Z,18.71
2023-01-02T11:19:36.592Z,19.09
2023-01-02T11:20:35.975Z,19.42
2023-01-02T11:21:35.255Z,19.15
2023-01-02T11:22:35.242Z,18.87
2023-01-02T11:23:35.241Z,19.12
2023-01-02T11:24:35.223Z,19.30
2023-01-02T11:25:35.236Z,19.05
2023-01-02T11:26:35.204Z,18.69
2023-01-02T11:27:35.182Z,18.44
2023-01-02T11:28:36.659Z,18.29
2023-01-02T11:29:37.671Z,18.39
2023-01-02T11:30:35.149Z,18.59
2023-01-02T11:31:35.246Z,18.82
2023-01-02T11:32:35.168Z,18.89
2023-01-02T11:33:35.169Z,18.94
2023-01-02T11:34:35.130Z,18.89
2023-01-02T11:35:35.099Z,18.96
2023-01-02T11:36:35.113Z,18.93
2023-01-02T11:37:40.230Z,18.60
2023-01-02T11:38:38.349Z,18.28
2023-01-02T11:39:35.069Z,18.13
2023-01-02T11:40:35.043Z,17.87
2023-01-02T11:41:35.048Z,17.79
2023-01-02T11:42:35.039Z,17.74
2023-01-02T11:43:35.059Z,17.57
2023-01-02T11:44:35.017Z,17.62
2023-01-02T11:45:35.026Z,17.65
2023-01-02T11:46:37.429Z,17.63
2023-01-02T11:47:39.212Z,17.68
2023-01-02T11:48:34.981Z,17.71
2023-01-02T11:49:34.944Z,17.91
2023-01-02T11:50:34.953Z,17.86
2023-01-02T11:51:34.934Z,18.02
2023-01-02T11:52:34.954Z,18.38
2023-01-02T11:53:34.944Z,18.74
2023-01-02T11:54:34.898Z,18.79
2023-01-02T11:55:38.349Z,18.91
2023-01-02T11:56:41.401Z,19.02
2023-01-02T11:57:35.940Z,18.94
2023-01-02T11:58:34.909Z,18.99
2023-01-02T11:59:34.904Z,18.90
2023-01-02T12:00:34.847Z,18.76
2023-01-02T12:01:34.917Z,18.60
2023-01-02T12:02:34.838Z,18.50
2023-01-02T12:03:34.909Z,18.44
2023-01-02T12:04:37.808Z,18.31
2023-01-02T12:05:38.201Z,18.11
2023-01-02T12:06:34.770Z,17.96
2023-01-02T12:07:34.776Z,17.98
2023-01-02T12:08:41.104Z,17.98
2023-01-02T12:09:35.751Z,18.01
2023-01-02T12:10:34.728Z,17.98
2023-01-02T12:11:34.707Z,18.13
2023-01-02T12:12:34.891Z,17.99
2023-01-02T12:13:34.779Z,17.87
2023-01-02T12:14:41.314Z,17.95
2023-01-02T12:15:34.681Z,17.81
2023-01-02T12:16:34.740Z,17.87
2023-01-02T12:17:34.699Z,17.79
2023-01-02T12:18:35.336Z,17.71
2023-01-02T12:19:34.893Z,17.57
2023-01-02T12:20:34.644Z,17.66
2023-01-02T12:21:34.668Z,17.60
2023-01-02T12:22:35.723Z,17.68
2023-01-02T12:23:38.139Z,17.63
2023-01-02T12:24:34.645Z,17.58
2023-01-02T12:25:34.699Z,17.62
2023-01-02T12:26:34.932Z,17.63
2023-01-02T12:27:34.645Z,17.60
2023-01-02T12:28:34.793Z,17.58
2023-01-02T12:29:47.579Z,17.57
2023-01-02T12:30:35.643Z,17.54
2023-01-02T12:31:34.968Z,17.46
2023-01-02T12:32:39.242Z,17.47
2023-01-02T12:33:34.653Z,17.47
2023-01-02T12:34:34.601Z,17.49
2023-01-02T12:35:34.666Z,17.53
2023-01-02T12:36:34.615Z,17.42
2023-01-02T12:37:34.622Z,17.39
2023-01-02T12:38:34.607Z,17.35
2023-01-02T12:39:34.745Z,17.35
2023-01-02T12:40:40.100Z,17.28
2023-01-02T12:42:01.274Z,17.33
2023-01-02T12:42:34.584Z,17.25
2023-01-02T12:43:34.655Z,17.22
2023-01-02T12:44:34.637Z,17.27
2023-01-02T12:45:34.769Z,17.20
2023-01-02T12:46:34.328Z,17.10
2023-01-02T12:47:34.356Z,17.14
2023-01-02T12:48:34.355Z,17.09
2023-01-02T12:49:36.830Z,17.12
2023-01-02T12:50:34.300Z,17.00
2023-01-02T12:51:34.264Z,17.03
2023-01-02T12:52:34.310Z,16.98
2023-01-02T12:53:34.296Z,17.03
2023-01-02T12:54:34.263Z,17.00
2023-01-02T12:55:34.291Z,16.92
2023-01-02T12:56:34.237Z,16.99
2023-01-02T12:57:36.268Z,16.92
2023-01-02T12:58:35.576Z,16.96
2023-01-02T12:59:34.304Z,16.99
2023-01-02T13:00:34.194Z,17.03
2023-01-02T13:01:34.341Z,17.02
2023-01-02T13:02:34.352Z,16.98